sensor_id;sensor_type;location;lat;lon;timestamp;pressure;altitude;pressure_sealevel;temperature;humidity
17593;BME280;8915;51.760;14.300;2023-02-11T00:01:18;102349.56;;;-0.91;100.00
17593;BME280;8915;51.760;14.300;2023-02-11T00:03:45;102348.69;;;-0.91;100.00
17593;BME280;8915;51.760;14.300;2023-02-11T00:06:11;102332.59;;;-0.89;100.00
17593;BME280;8915;51.760;14.300;2023-02-11T00:08:38;102331.78;;;-0.88;100.00
17593;BME280;8915;51.760;14.300;2023-02-11T00:11:05;102336.69;;;-0.92;100.00
17593;BME280;8915;51.760;14.300;2023-02-11T00:13:33;102332.50;;;-0.90;100.00
17593;BME280;8915;51.760;14.300;2023-02-11T00:15:59;102321.41;;;-0.91;100.00
17593;BME280;8915;51.760;14.300;2023-02-11T00:18:30;102308.75;;;-0.88;100.00
17593;BME280;8915;51.760;14.300;2023-02-11T00:20:57;102311.34;;;-0.86;100.00
17593;BME280;8915;51.760;14.300;2023-02-11T00:23:23;102305.28;;;-0.88;100.00
17593;BME280;8915;51.760;14.300;2023-02-11T00:25:49;102303.47;;;-0.91;100.00
17593;BME280;8915;51.760;14.300;2023-02-11T00:28:16;102288.09;;;-0.91;100.00
17593;BME280;8915;51.760;14.300;2023-02-11T00:30:43;102281.50;;;-0.86;100.00
17593;BME280;8915;51.760;14.300;2023-02-11T00:33:10;102283.31;;;-0.83;100.00
17593;BME280;8915;51.760;14.300;2023-02-11T00:35:37;102286.84;;;-0.81;100.00
17593;BME280;8915;51.760;14.300;2023-02-11T00:38:03;102275.13;;;-0.76;100.00
17593;BME280;8915;51.760;14.300;2023-02-11T00:40:30;102279.31;;;-0.78;100.00
17593;BME280;8915;51.760;14.300;2023-02-11T00:42:56;102278.69;;;-0.72;100.00
17593;BME280;8915;51.760;14.300;2023-02-11T00:45:23;102274.34;;;-0.75;100.00
17593;BME280;8915;51.760;14.300;2023-02-11T00:47:52;102280.25;;;-0.76;100.00
17593;BME280;8915;51.760;14.300;2023-02-11T00:50:18;102277.59;;;-0.78;100.00
17593;BME280;8915;51.760;14.300;2023-02-11T00:52:47;102279.38;;;-0.77;100.00
17593;BME280;8915;51.760;14.300;2023-02-11T00:55:14;102288.75;;;-0.77;100.00
17593;BME280;8915;51.760;14.300;2023-02-11T00:57:40;102286.28;;;-0.75;100.00
17593;BME280;8915;51.760;14.300;2023-02-11T01:00:08;102283.75;;;-0.74;100.00
17593;BME280;8915;51.760;14.300;2023-02-11T01:02:35;102293.63;;;-0.64;100.00
17593;BME280;8915;51.760;14.300;2023-02-11T01:05:04;102304.09;;;-0.59;100.00
17593;BME280;8915;51.760;14.300;2023-02-11T01:07:31;102288.66;;;-0.61;100.00
17593;BME280;8915;51.760;14.300;2023-02-11T01:09:57;102267.22;;;-0.63;100.00
17593;BME280;8915;51.760;14.300;2023-02-11T01:12:24;102271.59;;;-0.60;100.00
17593;BME280;8915;51.760;14.300;2023-02-11T01:14:50;102275.84;;;-0.61;100.00
17593;BME280;8915;51.760;14.300;2023-02-11T01:17:18;102275.03;;;-0.60;100.00
17593;BME280;8915;51.760;14.300;2023-02-11T01:19:44;102283.75;;;-0.56;100.00
17593;BME280;8915;51.760;14.300;2023-02-11T01:22:12;102269.47;;;-0.51;100.00
17593;BME280;8915;51.760;14.300;2023-02-11T01:24:38;102261.88;;;-0.48;100.00
17593;BME280;8915;51.760;14.300;2023-02-11T01:27:06;102258.75;;;-0.42;100.00
17593;BME280;8915;51.760;14.300;2023-02-11T01:29:33;102242.00;;;-0.34;100.00
17593;BME280;8915;51.760;14.300;2023-02-11T01:31:59;102237.81;;;-0.32;100.00
17593;BME280;8915;51.760;14.300;2023-02-11T01:34:27;102236.22;;;-0.30;100.00
17593;BME280;8915;51.760;14.300;2023-02-11T01:36:56;102230.34;;;-0.27;100.00
17593;BME280;8915;51.760;14.300;2023-02-11T01:39:25;102227.03;;;-0.25;100.00
17593;BME280;8915;51.760;14.300;2023-02-11T01:41:52;102231.44;;;-0.22;100.00
17593;BME280;8915;51.760;14.300;2023-02-11T01:44:24;102229.81;;;-0.20;100.00
17593;BME280;8915;51.760;14.300;2023-02-11T01:46:50;102235.22;;;-0.14;100.00
17593;BME280;8915;51.760;14.300;2023-02-11T01:49:20;102248.97;;;-0.12;100.00
17593;BME280;8915;51.760;14.300;2023-02-11T01:51:51;102251.72;;;-0.07;100.00
17593;BME280;8915;51.760;14.300;2023-02-11T01:54:23;102246.81;;;-0.03;100.00
17593;BME280;8915;51.760;14.300;2023-02-11T01:57:12;102249.50;;;0.01;100.00
17593;BME280;8915;51.760;14.300;2023-02-11T02:00:02;102243.63;;;0.03;100.00
17593;BME280;8915;51.760;14.300;2023-02-11T02:02:43;102236.13;;;0.08;100.00
17593;BME280;8915;51.760;14.300;2023-02-11T02:05:18;102227.50;;;0.06;100.00
17593;BME280;8915;51.760;14.300;2023-02-11T02:07:53;102219.81;;;0.06;100.00
17593;BME280;8915;51.760;14.300;2023-02-11T02:10:23;102224.31;;;0.11;100.00
17593;BME280;8915;51.760;14.300;2023-02-11T02:12:52;102205.59;;;0.14;100.00
17593;BME280;8915;51.760;14.300;2023-02-11T02:15:24;102195.47;;;0.17;100.00
17593;BME280;8915;51.760;14.300;2023-02-11T02:18:12;102193.03;;;0.20;100.00
17593;BME280;8915;51.760;14.300;2023-02-11T02:24:11;102171.88;;;0.26;100.00
17593;BME280;8915;51.760;14.300;2023-02-11T02:33:02;102169.59;;;0.32;100.00
17593;BME280;8915;51.760;14.300;2023-02-11T02:35:37;102156.97;;;0.38;100.00
17593;BME280;8915;51.760;14.300;2023-02-11T02:38:07;102149.28;;;0.38;100.00
17593;BME280;8915;51.760;14.300;2023-02-11T02:40:40;102145.16;;;0.42;100.00
17593;BME280;8915;51.760;14.300;2023-02-11T02:43:10;102136.72;;;0.44;100.00
17593;BME280;8915;51.760;14.300;2023-02-11T02:45:37;102129.16;;;0.49;100.00
17593;BME280;8915;51.760;14.300;2023-02-11T02:48:04;102110.41;;;0.50;100.00
17593;BME280;8915;51.760;14.300;2023-02-11T02:50:33;102112.13;;;0.51;100.00
17593;BME280;8915;51.760;14.300;2023-02-11T02:53:12;102114.91;;;0.55;100.00
17593;BME280;8915;51.760;14.300;2023-02-11T02:55:51;102108.06;;;0.56;100.00
17593;BME280;8915;51.760;14.300;2023-02-11T02:58:40;102122.84;;;0.62;100.00
17593;BME280;8915;51.760;14.300;2023-02-11T03:01:18;102122.88;;;0.63;100.00
17593;BME280;8915;51.760;14.300;2023-02-11T03:03:53;102128.00;;;0.63;100.00
17593;BME280;8915;51.760;14.300;2023-02-11T03:06:29;102140.19;;;0.67;100.00
17593;BME280;8915;51.760;14.300;2023-02-11T03:09:02;102138.53;;;0.69;100.00
17593;BME280;8915;51.760;14.300;2023-02-11T03:11:31;102141.97;;;0.70;100.00
17593;BME280;8915;51.760;14.300;2023-02-11T03:14:00;102149.09;;;0.77;100.00
17593;BME280;8915;51.760;14.300;2023-02-11T03:16:28;102149.09;;;0.77;100.00
17593;BME280;8915;51.760;14.300;2023-02-11T03:19:05;102142.28;;;0.78;100.00
17593;BME280;8915;51.760;14.300;2023-02-11T03:21:37;102143.16;;;0.78;100.00
17593;BME280;8915;51.760;14.300;2023-02-11T03:24:06;102133.81;;;0.80;100.00
17593;BME280;8915;51.760;14.300;2023-02-11T03:26:37;102132.09;;;0.81;100.00
17593;BME280;8915;51.760;14.300;2023-02-11T03:29:09;102132.16;;;0.82;100.00
17593;BME280;8915;51.760;14.300;2023-02-11T03:31:45;102122.72;;;0.81;100.00
17593;BME280;8915;51.760;14.300;2023-02-11T03:34:25;102120.84;;;0.77;100.00
17593;BME280;8915;51.760;14.300;2023-02-11T03:36:58;102120.16;;;0.81;100.00
17593;BME280;8915;51.760;14.300;2023-02-11T03:39:30;102124.47;;;0.82;100.00
17593;BME280;8915;51.760;14.300;2023-02-11T03:41:59;102115.09;;;0.83;100.00
17593;BME280;8915;51.760;14.300;2023-02-11T03:44:32;102116.03;;;0.85;100.00
17593;BME280;8915;51.760;14.300;2023-02-11T03:47:02;102114.25;;;0.84;100.00
17593;BME280;8915;51.760;14.300;2023-02-11T03:49:32;102117.69;;;0.84;100.00
17593;BME280;8915;51.760;14.300;2023-02-11T03:52:02;102106.59;;;0.85;100.00
17593;BME280;8915;51.760;14.300;2023-02-11T03:54:30;102099.84;;;0.87;100.00
17593;BME280;8915;51.760;14.300;2023-02-11T03:56:58;102100.59;;;0.85;100.00
17593;BME280;8915;51.760;14.300;2023-02-11T03:59:25;102101.53;;;0.87;100.00
17593;BME280;8915;51.760;14.300;2023-02-11T04:01:52;102097.19;;;0.86;100.00
17593;BME280;8915;51.760;14.300;2023-02-11T04:04:18;102096.47;;;0.88;100.00
17593;BME280;8915;51.760;14.300;2023-02-11T04:06:46;102094.88;;;0.92;100.00
17593;BME280;8915;51.760;14.300;2023-02-11T04:09:13;102092.31;;;0.92;100.00
17593;BME280;8915;51.760;14.300;2023-02-11T04:11:39;102090.72;;;0.96;100.00
17593;BME280;8915;51.760;14.300;2023-02-11T04:14:06;102081.50;;;1.01;100.00
17593;BME280;8915;51.760;14.300;2023-02-11T04:16:32;102081.56;;;1.02;100.00
17593;BME280;8915;51.760;14.300;2023-02-11T04:18:58;102084.16;;;1.04;100.00
17593;BME280;8915;51.760;14.300;2023-02-11T04:21:25;102076.63;;;1.08;100.00
17593;BME280;8915;51.760;14.300;2023-02-11T04:23:53;102091.22;;;1.09;100.00
17593;BME280;8915;51.760;14.300;2023-02-11T04:26:19;102088.66;;;1.09;100.00
17593;BME280;8915;51.760;14.300;2023-02-11T04:28:46;102080.19;;;1.12;100.00
17593;BME280;8915;51.760;14.300;2023-02-11T04:31:12;102088.19;;;1.20;100.00
17593;BME280;8915;51.760;14.300;2023-02-11T04:33:38;102079.63;;;1.21;100.00
17593;BME280;8915;51.760;14.300;2023-02-11T04:36:05;102083.19;;;1.24;100.00
17593;BME280;8915;51.760;14.300;2023-02-11T04:38:32;102078.16;;;1.27;100.00
17593;BME280;8915;51.760;14.300;2023-02-11T04:41:00;102081.47;;;1.25;100.00
17593;BME280;8915;51.760;14.300;2023-02-11T04:43:27;102079.19;;;1.32;100.00
17593;BME280;8915;51.760;14.300;2023-02-11T04:45:55;102072.25;;;1.30;100.00
17593;BME280;8915;51.760;14.300;2023-02-11T04:48:22;102074.00;;;1.31;100.00
17593;BME280;8915;51.760;14.300;2023-02-11T04:50:48;102072.41;;;1.35;100.00
17593;BME280;8915;51.760;14.300;2023-02-11T04:53:14;102077.66;;;1.38;100.00
17593;BME280;8915;51.760;14.300;2023-02-11T04:55:41;102074.25;;;1.39;100.00
17593;BME280;8915;51.760;14.300;2023-02-11T04:58:08;102072.59;;;1.39;100.00
17593;BME280;8915;51.760;14.300;2023-02-11T05:00:35;102075.91;;;1.37;100.00
17593;BME280;8915;51.760;14.300;2023-02-11T05:03:01;102066.50;;;1.37;100.00
17593;BME280;8915;51.760;14.300;2023-02-11T05:05:28;102075.09;;;1.38;100.00
17593;BME280;8915;51.760;14.300;2023-02-11T05:07:54;102069.06;;;1.37;100.00
17593;BME280;8915;51.760;14.300;2023-02-11T05:10:20;102063.22;;;1.41;100.00
17593;BME280;8915;51.760;14.300;2023-02-11T05:12:47;102064.94;;;1.41;100.00
17593;BME280;8915;51.760;14.300;2023-02-11T05:15:15;102058.84;;;1.39;100.00
17593;BME280;8915;51.760;14.300;2023-02-11T05:17:41;102053.81;;;1.42;100.00
17593;BME280;8915;51.760;14.300;2023-02-11T05:20:09;102053.00;;;1.43;100.00
17593;BME280;8915;51.760;14.300;2023-02-11T05:22:35;102053.06;;;1.44;100.00
17593;BME280;8915;51.760;14.300;2023-02-11T05:25:02;102056.44;;;1.43;100.00
17593;BME280;8915;51.760;14.300;2023-02-11T05:27:29;102054.72;;;1.44;100.00
17593;BME280;8915;51.760;14.300;2023-02-11T05:29:55;102055.56;;;1.43;100.00
17593;BME280;8915;51.760;14.300;2023-02-11T05:32:23;102055.50;;;1.41;100.00
17593;BME280;8915;51.760;14.300;2023-02-11T05:34:49;102051.13;;;1.39;100.00
17593;BME280;8915;51.760;14.300;2023-02-11T05:37:16;102048.66;;;1.42;100.00
17593;BME280;8915;51.760;14.300;2023-02-11T05:39:42;102047.81;;;1.41;100.00
17593;BME280;8915;51.760;14.300;2023-02-11T05:42:08;102040.91;;;1.40;100.00
17593;BME280;8915;51.760;14.300;2023-02-11T05:44:35;102045.34;;;1.44;100.00
17593;BME280;8915;51.760;14.300;2023-02-11T05:47:01;102035.94;;;1.45;100.00
17593;BME280;8915;51.760;14.300;2023-02-11T05:49:29;102035.94;;;1.45;100.00
17593;BME280;8915;51.760;14.300;2023-02-11T05:51:56;102030.78;;;1.45;100.00
17593;BME280;8915;51.760;14.300;2023-02-11T05:54:22;102017.94;;;1.45;100.00
17593;BME280;8915;51.760;14.300;2023-02-11T05:56:48;102022.25;;;1.46;100.00
17593;BME280;8915;51.760;14.300;2023-02-11T05:59:15;102020.50;;;1.45;100.00
17593;BME280;8915;51.760;14.300;2023-02-11T06:01:41;102024.97;;;1.50;100.00
17593;BME280;8915;51.760;14.300;2023-02-11T06:04:07;102025.91;;;1.52;100.00
17593;BME280;8915;51.760;14.300;2023-02-11T06:06:35;102022.47;;;1.52;100.00
17593;BME280;8915;51.760;14.300;2023-02-11T06:09:02;102011.38;;;1.55;100.00
17593;BME280;8915;51.760;14.300;2023-02-11T06:11:29;102012.28;;;1.55;100.00
17593;BME280;8915;51.760;14.300;2023-02-11T06:13:55;102014.81;;;1.54;100.00
17593;BME280;8915;51.760;14.300;2023-02-11T06:16:21;102004.66;;;1.58;100.00
17593;BME280;8915;51.760;14.300;2023-02-11T06:18:47;101996.13;;;1.59;100.00
17593;BME280;8915;51.760;14.300;2023-02-11T06:21:14;101993.66;;;1.62;100.00
17593;BME280;8915;51.760;14.300;2023-02-11T06:23:41;102005.72;;;1.65;100.00
17593;BME280;8915;51.760;14.300;2023-02-11T06:26:15;101996.34;;;1.65;100.00
17593;BME280;8915;51.760;14.300;2023-02-11T06:28:42;101999.63;;;1.61;100.00
17593;BME280;8915;51.760;14.300;2023-02-11T06:31:08;101998.13;;;1.68;100.00
17593;BME280;8915;51.760;14.300;2023-02-11T06:33:36;102001.56;;;1.68;100.00
17593;BME280;8915;51.760;14.300;2023-02-11T06:36:04;102002.47;;;1.70;100.00
17593;BME280;8915;51.760;14.300;2023-02-11T06:38:36;101999.19;;;1.75;100.00
17593;BME280;8915;51.760;14.300;2023-02-11T06:41:04;102009.59;;;1.78;100.00
17593;BME280;8915;51.760;14.300;2023-02-11T06:43:31;102005.31;;;1.78;100.00
17593;BME280;8915;51.760;14.300;2023-02-11T06:45:57;102008.66;;;1.76;100.00
17593;BME280;8915;51.760;14.300;2023-02-11T06:48:23;102011.44;;;1.82;100.00
17593;BME280;8915;51.760;14.300;2023-02-11T06:50:50;102009.81;;;1.85;100.00
17593;BME280;8915;51.760;14.300;2023-02-11T06:53:16;102017.53;;;1.85;100.00
17593;BME280;8915;51.760;14.300;2023-02-11T06:55:43;102022.88;;;1.92;100.00
17593;BME280;8915;51.760;14.300;2023-02-11T06:58:10;102032.44;;;1.96;100.00
17593;BME280;8915;51.760;14.300;2023-02-11T07:00:37;102033.31;;;1.96;100.00
17593;BME280;8915;51.760;14.300;2023-02-11T07:03:03;102027.25;;;1.94;100.00
17593;BME280;8915;51.760;14.300;2023-02-11T07:05:30;102025.69;;;1.99;100.00
17593;BME280;8915;51.760;14.300;2023-02-11T07:07:58;102029.97;;;1.99;100.00
17593;BME280;8915;51.760;14.300;2023-02-11T07:10:24;102029.19;;;2.01;100.00
17593;BME280;8915;51.760;14.300;2023-02-11T07:12:51;102031.72;;;2.00;100.00
17593;BME280;8915;51.760;14.300;2023-02-11T07:15:18;102041.19;;;2.01;100.00
17593;BME280;8915;51.760;14.300;2023-02-11T07:17:45;102043.81;;;2.02;100.00
17593;BME280;8915;51.760;14.300;2023-02-11T07:20:11;102048.91;;;2.01;100.00
17593;BME280;8915;51.760;14.300;2023-02-11T07:22:38;102039.44;;;2.00;100.00
17593;BME280;8915;51.760;14.300;2023-02-11T07:25:05;102054.00;;;1.99;100.00
17593;BME280;8915;51.760;14.300;2023-02-11T07:27:31;102049.78;;;2.01;100.00
17593;BME280;8915;51.760;14.300;2023-02-11T07:29:58;102042.00;;;2.00;100.00
17593;BME280;8915;51.760;14.300;2023-02-11T07:32:25;102039.47;;;2.01;100.00
17593;BME280;8915;51.760;14.300;2023-02-11T07:34:52;102038.63;;;2.01;100.00
17593;BME280;8915;51.760;14.300;2023-02-11T07:37:18;102034.28;;;2.00;100.00
17593;BME280;8915;51.760;14.300;2023-02-11T07:39:45;102028.28;;;1.99;100.00
17593;BME280;8915;51.760;14.300;2023-02-11T07:42:11;102024.09;;;2.03;100.00
17593;BME280;8915;51.760;14.300;2023-02-11T07:44:38;102015.47;;;2.01;100.00
17593;BME280;8915;51.760;14.300;2023-02-11T07:47:04;102018.91;;;2.01;100.00
17593;BME280;8915;51.760;14.300;2023-02-11T07:49:32;102012.94;;;2.02;100.00
17593;BME280;8915;51.760;14.300;2023-02-11T07:51:58;102002.66;;;2.04;100.00
17593;BME280;8915;51.760;14.300;2023-02-11T07:54:24;102008.84;;;2.09;100.00
17593;BME280;8915;51.760;14.300;2023-02-11T07:56:51;101989.22;;;2.13;100.00
17593;BME280;8915;51.760;14.300;2023-02-11T07:59:17;101994.59;;;2.20;100.00
17593;BME280;8915;51.760;14.300;2023-02-11T08:01:44;101992.34;;;2.31;100.00
17593;BME280;8915;51.760;14.300;2023-02-11T08:04:10;101997.66;;;2.37;100.00
17593;BME280;8915;51.760;14.300;2023-02-11T08:06:40;101990.91;;;2.41;100.00
17593;BME280;8915;51.760;14.300;2023-02-11T08:09:09;101987.56;;;2.43;100.00
17593;BME280;8915;51.760;14.300;2023-02-11T08:11:36;101985.91;;;2.45;100.00
17593;BME280;8915;51.760;14.300;2023-02-11T08:14:02;101995.50;;;2.51;100.00
17593;BME280;8915;51.760;14.300;2023-02-11T08:16:30;101990.50;;;2.56;100.00
17593;BME280;8915;51.760;14.300;2023-02-11T08:18:59;101984.53;;;2.58;100.00
17593;BME280;8915;51.760;14.300;2023-02-11T08:21:27;101997.47;;;2.60;100.00
17593;BME280;8915;51.760;14.300;2023-02-11T08:23:55;101998.38;;;2.62;100.00
17593;BME280;8915;51.760;14.300;2023-02-11T08:26:24;102001.06;;;2.65;100.00
17593;BME280;8915;51.760;14.300;2023-02-11T08:28:52;102002.81;;;2.66;100.00
17593;BME280;8915;51.760;14.300;2023-02-11T08:31:22;102015.03;;;2.73;100.00
17593;BME280;8915;51.760;14.300;2023-02-11T08:33:49;102009.97;;;2.76;100.00
17593;BME280;8915;51.760;14.300;2023-02-11T08:36:18;102022.09;;;2.80;100.00
17593;BME280;8915;51.760;14.300;2023-02-11T08:38:45;102023.97;;;2.86;100.00
17593;BME280;8915;51.760;14.300;2023-02-11T08:41:13;102021.44;;;2.88;100.00
17593;BME280;8915;51.760;14.300;2023-02-11T08:43:40;102019.75;;;2.90;100.00
17593;BME280;8915;51.760;14.300;2023-02-11T08:46:08;102011.31;;;2.94;100.00
17593;BME280;8915;51.760;14.300;2023-02-11T08:48:35;102011.47;;;3.00;100.00
17593;BME280;8915;51.760;14.300;2023-02-11T08:51:05;102022.69;;;3.02;100.00
17593;BME280;8915;51.760;14.300;2023-02-11T08:53:31;102018.38;;;3.01;100.00
17593;BME280;8915;51.760;14.300;2023-02-11T08:55:58;102031.22;;;2.99;100.00
17593;BME280;8915;51.760;14.300;2023-02-11T08:58:25;102030.41;;;3.02;100.00
17593;BME280;8915;51.760;14.300;2023-02-11T09:00:52;102032.41;;;3.12;100.00
17593;BME280;8915;51.760;14.300;2023-02-11T09:03:18;102045.44;;;3.17;100.00
17593;BME280;8915;51.760;14.300;2023-02-11T09:05:46;102046.44;;;3.22;100.00
17593;BME280;8915;51.760;14.300;2023-02-11T09:08:15;102035.34;;;3.26;100.00
17593;BME280;8915;51.760;14.300;2023-02-11T09:10:41;102048.50;;;3.35;100.00
17593;BME280;8915;51.760;14.300;2023-02-11T09:13:08;102061.56;;;3.41;100.00
17593;BME280;8915;51.760;14.300;2023-02-11T09:15:36;102040.25;;;3.49;100.00
17593;BME280;8915;51.760;14.300;2023-02-11T09:18:03;102037.00;;;3.56;100.00
17593;BME280;8915;51.760;14.300;2023-02-11T09:20:30;102023.41;;;3.63;100.00
17593;BME280;8915;51.760;14.300;2023-02-11T09:22:57;102006.31;;;3.67;100.00
17593;BME280;8915;51.760;14.300;2023-02-11T09:25:24;102020.06;;;3.67;100.00
17593;BME280;8915;51.760;14.300;2023-02-11T09:27:50;102017.78;;;3.79;100.00
17593;BME280;8915;51.760;14.300;2023-02-11T09:30:18;102003.56;;;3.97;100.00
17593;BME280;8915;51.760;14.300;2023-02-11T09:32:46;101989.28;;;4.13;100.00
17593;BME280;8915;51.760;14.300;2023-02-11T09:35:12;101991.91;;;4.14;100.00
17593;BME280;8915;51.760;14.300;2023-02-11T09:37:38;101993.59;;;4.12;100.00
17593;BME280;8915;51.760;14.300;2023-02-11T09:40:05;101995.28;;;4.10;100.00
17593;BME280;8915;51.760;14.300;2023-02-11T09:42:40;101983.34;;;4.15;100.00
17593;BME280;8915;51.760;14.300;2023-02-11T09:45:12;101985.19;;;4.21;100.00
17593;BME280;8915;51.760;14.300;2023-02-11T09:47:48;101979.19;;;4.24;100.00
17593;BME280;8915;51.760;14.300;2023-02-11T09:50:19;101980.84;;;4.20;100.00
17593;BME280;8915;51.760;14.300;2023-02-11T09:52:51;101998.81;;;4.14;100.00
17593;BME280;8915;51.760;14.300;2023-02-11T09:55:24;102008.06;;;4.06;100.00
17593;BME280;8915;51.760;14.300;2023-02-11T09:57:50;102011.59;;;4.09;100.00
17593;BME280;8915;51.760;14.300;2023-02-11T10:00:22;102018.50;;;4.10;100.00
17593;BME280;8915;51.760;14.300;2023-02-11T10:03:00;102028.91;;;4.13;100.00
17593;BME280;8915;51.760;14.300;2023-02-11T10:05:50;102022.06;;;4.15;100.00
17593;BME280;8915;51.760;14.300;2023-02-11T10:08:30;102015.09;;;4.13;100.00
17593;BME280;8915;51.760;14.300;2023-02-11T10:11:05;102016.06;;;4.16;100.00
17593;BME280;8915;51.760;14.300;2023-02-11T10:13:45;102023.84;;;4.18;100.00
17593;BME280;8915;51.760;14.300;2023-02-11T10:16:24;102019.53;;;4.18;100.00
17593;BME280;8915;51.760;14.300;2023-02-11T10:19:18;102017.19;;;4.28;100.00
17593;BME280;8915;51.760;14.300;2023-02-11T10:22:02;102044.97;;;4.38;100.00
17593;BME280;8915;51.760;14.300;2023-02-11T10:24:32;102019.00;;;4.33;100.00
17593;BME280;8915;51.760;14.300;2023-02-11T10:27:00;102021.63;;;4.35;100.00
17593;BME280;8915;51.760;14.300;2023-02-11T10:29:34;102022.63;;;4.40;100.00
17593;BME280;8915;51.760;14.300;2023-02-11T10:32:05;102024.31;;;4.40;100.00
17593;BME280;8915;51.760;14.300;2023-02-11T10:34:40;102025.97;;;4.38;100.00
17593;BME280;8915;51.760;14.300;2023-02-11T10:37:08;102040.56;;;4.35;100.00
17593;BME280;8915;51.760;14.300;2023-02-11T10:39:34;102031.06;;;4.33;100.00
17593;BME280;8915;51.760;14.300;2023-02-11T10:42:04;102020.69;;;4.31;100.00
17593;BME280;8915;51.760;14.300;2023-02-11T10:44:36;102003.38;;;4.27;100.00
17593;BME280;8915;51.760;14.300;2023-02-11T10:47:08;102005.13;;;4.28;100.00
17593;BME280;8915;51.760;14.300;2023-02-11T10:49:40;102010.22;;;4.25;100.00
17593;BME280;8915;51.760;14.300;2023-02-11T10:52:18;102002.50;;;4.27;100.00
17593;BME280;8915;51.760;14.300;2023-02-11T10:55:03;101993.81;;;4.23;100.00
17593;BME280;8915;51.760;14.300;2023-02-11T10:57:33;102003.25;;;4.21;100.00
17593;BME280;8915;51.760;14.300;2023-02-11T11:00:06;102016.19;;;4.23;100.00
17593;BME280;8915;51.760;14.300;2023-02-11T11:02:35;102000.84;;;4.29;100.00
17593;BME280;8915;51.760;14.300;2023-02-11T11:05:16;102010.34;;;4.30;100.00
17593;BME280;8915;51.760;14.300;2023-02-11T11:07:52;102000.84;;;4.29;100.00
17593;BME280;8915;51.760;14.300;2023-02-11T11:10:28;101993.97;;;4.31;100.00
17593;BME280;8915;51.760;14.300;2023-02-11T11:12:55;102005.28;;;4.34;100.00
17593;BME280;8915;51.760;14.300;2023-02-11T11:15:23;102004.41;;;4.35;100.00
17593;BME280;8915;51.760;14.300;2023-02-11T11:18:08;102000.13;;;4.34;100.00
17593;BME280;8915;51.760;14.300;2023-02-11T11:20:36;102009.63;;;4.37;100.00
17593;BME280;8915;51.760;14.300;2023-02-11T11:23:09;102012.22;;;4.37;100.00
17593;BME280;8915;51.760;14.300;2023-02-11T11:25:42;102020.78;;;4.34;100.00
17593;BME280;8915;51.760;14.300;2023-02-11T11:28:19;102025.09;;;4.35;100.00
17593;BME280;8915;51.760;14.300;2023-02-11T11:30:46;102025.00;;;4.32;100.00
17593;BME280;8915;51.760;14.300;2023-02-11T11:33:18;102003.50;;;4.32;100.00
17593;BME280;8915;51.760;14.300;2023-02-11T11:35:54;101994.03;;;4.32;100.00
17593;BME280;8915;51.760;14.300;2023-02-11T11:38:22;102002.72;;;4.36;100.00
17593;BME280;8915;51.760;14.300;2023-02-11T11:41:14;101990.81;;;4.43;100.00
17593;BME280;8915;51.760;14.300;2023-02-11T11:43:53;101986.53;;;4.45;100.00
17593;BME280;8915;51.760;14.300;2023-02-11T11:46:22;101991.78;;;4.48;100.00
17593;BME280;8915;51.760;14.300;2023-02-11T11:48:50;101985.72;;;4.46;100.00
17593;BME280;8915;51.760;14.300;2023-02-11T11:51:22;101994.34;;;4.48;100.00
17593;BME280;8915;51.760;14.300;2023-02-11T11:53:52;101983.09;;;4.44;100.00
17593;BME280;8915;51.760;14.300;2023-02-11T11:56:23;101977.94;;;4.44;100.00
17593;BME280;8915;51.760;14.300;2023-02-11T11:58:51;101976.13;;;4.40;100.00
17593;BME280;8915;51.760;14.300;2023-02-11T12:01:27;101983.00;;;4.41;100.00
17593;BME280;8915;51.760;14.300;2023-02-11T12:04:12;101993.44;;;4.46;100.00
17593;BME280;8915;51.760;14.300;2023-02-11T12:06:52;101990.03;;;4.47;100.00
17593;BME280;8915;51.760;14.300;2023-02-11T12:09:26;101985.66;;;4.44;100.00
17593;BME280;8915;51.760;14.300;2023-02-11T12:12:07;101973.59;;;4.43;100.00
17593;BME280;8915;51.760;14.300;2023-02-11T12:14:44;101971.91;;;4.44;100.00
17593;BME280;8915;51.760;14.300;2023-02-11T12:17:27;101973.59;;;4.43;100.00
17593;BME280;8915;51.760;14.300;2023-02-11T12:20:10;101987.34;;;4.42;100.00
17593;BME280;8915;51.760;14.300;2023-02-11T12:22:51;101980.47;;;4.43;100.00
17593;BME280;8915;51.760;14.300;2023-02-11T12:25:25;101988.22;;;4.43;100.00
17593;BME280;8915;51.760;14.300;2023-02-11T12:28:01;101980.44;;;4.41;100.00
17593;BME280;8915;51.760;14.300;2023-02-11T12:30:48;101987.28;;;4.39;100.00
17593;BME280;8915;51.760;14.300;2023-02-11T12:33:26;101978.75;;;4.43;100.00
17593;BME280;8915;51.760;14.300;2023-02-11T12:36:01;101984.69;;;4.39;100.00
17593;BME280;8915;51.760;14.300;2023-02-11T12:38:42;101999.34;;;4.39;100.00
17593;BME280;8915;51.760;14.300;2023-02-11T12:41:22;101995.06;;;4.41;100.00
17593;BME280;8915;51.760;14.300;2023-02-11T12:44:14;101991.63;;;4.40;100.00
17593;BME280;8915;51.760;14.300;2023-02-11T12:46:48;101977.81;;;4.40;100.00
17593;BME280;8915;51.760;14.300;2023-02-11T12:49:37;101983.81;;;4.37;100.00
17593;BME280;8915;51.760;14.300;2023-02-11T12:52:19;101991.66;;;4.42;100.00
17593;BME280;8915;51.760;14.300;2023-02-11T12:54:55;101973.50;;;4.39;100.00
17593;BME280;8915;51.760;14.300;2023-02-11T12:57:26;101976.06;;;4.37;100.00
17593;BME280;8915;51.760;14.300;2023-02-11T12:59:58;101972.56;;;4.35;100.00
17593;BME280;8915;51.760;14.300;2023-02-11T13:02:35;101972.53;;;4.33;100.00
17593;BME280;8915;51.760;14.300;2023-02-11T13:05:09;101947.56;;;4.34;100.00
17593;BME280;8915;51.760;14.300;2023-02-11T13:07:42;101948.38;;;4.30;100.00
17593;BME280;8915;51.760;14.300;2023-02-11T13:10:22;101949.97;;;4.25;100.00
17593;BME280;8915;51.760;14.300;2023-02-11T13:12:51;101949.03;;;4.21;100.00